sensor_id;sensor_type;location;lat;lon;timestamp;P1;durP1;ratioP1;P2;durP2;ratioP2
3769;SDS011;1900;48.890;9.190;2022-12-01T00:02:24;38.03;;;17.47;;
3769;SDS011;1900;48.890;9.190;2022-12-01T00:04:52;29.30;;;15.80;;
3769;SDS011;1900;48.890;9.190;2022-12-01T00:07:18;31.83;;;15.63;;
3769;SDS011;1900;48.890;9.190;2022-12-01T00:09:43;36.40;;;16.33;;
3769;SDS011;1900;48.890;9.190;2022-12-01T00:12:28;35.43;;;17.10;;
3769;SDS011;1900;48.890;9.190;2022-12-01T00:14:55;31.23;;;16.00;;
3769;SDS011;1900;48.890;9.190;2022-12-01T00:17:26;27.37;;;14.63;;
3769;SDS011;1900;48.890;9.190;2022-12-01T00:19:55;31.43;;;16.20;;
3769;SDS011;1900;48.890;9.190;2022-12-01T00:22:21;31.57;;;15.60;;
3769;SDS011;1900;48.890;9.190;2022-12-01T00:24:47;34.80;;;16.87;;
3769;SDS011;1900;48.890;9.190;2022-12-01T00:27:12;28.80;;;15.07;;
3769;SDS011;1900;48.890;9.190;2022-12-01T00:29:38;29.97;;;15.97;;
3769;SDS011;1900;48.890;9.190;2022-12-01T00:32:04;27.13;;;15.03;;
3769;SDS011;1900;48.890;9.190;2022-12-01T00:34:30;28.00;;;15.20;;
3769;SDS011;1900;48.890;9.190;2022-12-01T00:36:55;31.50;;;16.27;;
3769;SDS011;1900;48.890;9.190;2022-12-01T00:39:21;30.53;;;15.70;;
3769;SDS011;1900;48.890;9.190;2022-12-01T00:41:47;29.10;;;15.10;;
3769;SDS011;1900;48.890;9.190;2022-12-01T00:44:12;27.90;;;15.63;;
3769;SDS011;1900;48.890;9.190;2022-12-01T00:46:38;30.53;;;16.30;;
3769;SDS011;1900;48.890;9.190;2022-12-01T00:49:04;25.93;;;15.47;;
3769;SDS011;1900;48.890;9.190;2022-12-01T00:51:30;33.27;;;15.80;;
3769;SDS011;1900;48.890;9.190;2022-12-01T00:53:56;28.87;;;16.33;;
3769;SDS011;1900;48.890;9.190;2022-12-01T00:56:21;28.93;;;14.60;;
3769;SDS011;1900;48.890;9.190;2022-12-01T00:58:47;26.93;;;15.60;;
3769;SDS011;1900;48.890;9.190;2022-12-01T01:01:13;28.57;;;16.77;;
3769;SDS011;1900;48.890;9.190;2022-12-01T01:03:38;28.80;;;15.37;;
3769;SDS011;1900;48.890;9.190;2022-12-01T01:06:05;23.83;;;14.20;;
3769;SDS011;1900;48.890;9.190;2022-12-01T01:08:32;32.73;;;16.50;;
3769;SDS011;1900;48.890;9.190;2022-12-01T01:10:58;23.50;;;13.90;;
3769;SDS011;1900;48.890;9.190;2022-12-01T01:13:25;29.50;;;15.23;;
3769;SDS011;1900;48.890;9.190;2022-12-01T01:16:01;28.70;;;15.40;;
3769;SDS011;1900;48.890;9.190;2022-12-01T01:18:29;28.03;;;14.73;;
3769;SDS011;1900;48.890;9.190;2022-12-01T01:20:56;26.67;;;15.47;;
3769;SDS011;1900;48.890;9.190;2022-12-01T01:23:22;29.57;;;15.50;;
3769;SDS011;1900;48.890;9.190;2022-12-01T01:25:48;28.43;;;15.97;;
3769;SDS011;1900;48.890;9.190;2022-12-01T01:28:14;26.93;;;14.10;;
3769;SDS011;1900;48.890;9.190;2022-12-01T01:30:40;24.23;;;13.97;;
3769;SDS011;1900;48.890;9.190;2022-12-01T01:33:05;29.60;;;16.10;;
3769;SDS011;1900;48.890;9.190;2022-12-01T01:35:31;24.30;;;14.60;;
3769;SDS011;1900;48.890;9.190;2022-12-01T01:37:57;27.60;;;15.23;;
3769;SDS011;1900;48.890;9.190;2022-12-01T01:40:22;34.13;;;17.20;;
3769;SDS011;1900;48.890;9.190;2022-12-01T01:42:48;27.90;;;15.20;;
3769;SDS011;1900;48.890;9.190;2022-12-01T01:45:21;29.80;;;15.90;;
3769;SDS011;1900;48.890;9.190;2022-12-01T01:47:49;25.40;;;14.50;;
3769;SDS011;1900;48.890;9.190;2022-12-01T01:50:19;31.90;;;14.60;;
3769;SDS011;1900;48.890;9.190;2022-12-01T01:52:50;29.27;;;15.83;;
3769;SDS011;1900;48.890;9.190;2022-12-01T01:55:21;28.33;;;14.03;;
3769;SDS011;1900;48.890;9.190;2022-12-01T01:57:47;29.70;;;14.83;;
3769;SDS011;1900;48.890;9.190;2022-12-01T02:00:14;28.60;;;14.70;;
3769;SDS011;1900;48.890;9.190;2022-12-01T02:02:42;28.13;;;13.40;;
3769;SDS011;1900;48.890;9.190;2022-12-01T02:05:31;31.33;;;15.13;;
3769;SDS011;1900;48.890;9.190;2022-12-01T02:07:57;25.33;;;13.83;;
3769;SDS011;1900;48.890;9.190;2022-12-01T02:10:28;29.40;;;14.70;;
3769;SDS011;1900;48.890;9.190;2022-12-01T02:13:37;29.20;;;14.33;;
3769;SDS011;1900;48.890;9.190;2022-12-01T02:16:13;23.97;;;13.27;;
3769;SDS011;1900;48.890;9.190;2022-12-01T02:18:52;23.70;;;14.33;;
3769;SDS011;1900;48.890;9.190;2022-12-01T02:25:05;25.13;;;13.97;;
3769;SDS011;1900;48.890;9.190;2022-12-01T02:29:59;26.90;;;13.70;;
3769;SDS011;1900;48.890;9.190;2022-12-01T02:32:53;25.33;;;14.30;;
3769;SDS011;1900;48.890;9.190;2022-12-01T02:38:38;23.43;;;12.60;;
3769;SDS011;1900;48.890;9.190;2022-12-01T02:41:27;25.57;;;13.10;;
3769;SDS011;1900;48.890;9.190;2022-12-01T02:46:47;24.63;;;12.97;;
3769;SDS011;1900;48.890;9.190;2022-12-01T02:49:20;23.83;;;12.17;;
3769;SDS011;1900;48.890;9.190;2022-12-01T02:51:51;21.00;;;12.27;;
3769;SDS011;1900;48.890;9.190;2022-12-01T02:54:18;20.83;;;12.03;;
3769;SDS011;1900;48.890;9.190;2022-12-01T02:56:45;18.73;;;11.00;;
3769;SDS011;1900;48.890;9.190;2022-12-01T02:59:11;23.73;;;13.20;;
3769;SDS011;1900;48.890;9.190;2022-12-01T03:01:44;23.30;;;13.10;;
3769;SDS011;1900;48.890;9.190;2022-12-01T03:12:34;21.10;;;11.60;;
3769;SDS011;1900;48.890;9.190;2022-12-01T03:18:07;26.30;;;12.40;;
3769;SDS011;1900;48.890;9.190;2022-12-01T03:20:35;24.73;;;11.67;;
3769;SDS011;1900;48.890;9.190;2022-12-01T03:23:11;32.00;;;13.37;;
3769;SDS011;1900;48.890;9.190;2022-12-01T03:25:41;23.30;;;13.17;;
3769;SDS011;1900;48.890;9.190;2022-12-01T03:28:10;23.50;;;14.07;;
3769;SDS011;1900;48.890;9.190;2022-12-01T03:30:38;26.93;;;13.53;;
3769;SDS011;1900;48.890;9.190;2022-12-01T03:33:12;25.47;;;15.17;;
3769;SDS011;1900;48.890;9.190;2022-12-01T03:35:45;27.43;;;13.40;;
3769;SDS011;1900;48.890;9.190;2022-12-01T03:38:19;23.37;;;13.13;;
3769;SDS011;1900;48.890;9.190;2022-12-01T03:40:51;25.33;;;14.00;;
3769;SDS011;1900;48.890;9.190;2022-12-01T03:43:26;25.07;;;14.50;;
3769;SDS011;1900;48.890;9.190;2022-12-01T03:48:27;26.07;;;14.00;;
3769;SDS011;1900;48.890;9.190;2022-12-01T03:53:24;26.00;;;13.67;;
3769;SDS011;1900;48.890;9.190;2022-12-01T03:55:57;30.50;;;15.27;;
3769;SDS011;1900;48.890;9.190;2022-12-01T03:58:32;31.57;;;16.63;;
3769;SDS011;1900;48.890;9.190;2022-12-01T04:01:02;28.50;;;15.03;;
3769;SDS011;1900;48.890;9.190;2022-12-01T04:03:28;31.80;;;15.43;;
3769;SDS011;1900;48.890;9.190;2022-12-01T04:05:54;32.30;;;18.00;;
3769;SDS011;1900;48.890;9.190;2022-12-01T04:08:22;30.43;;;16.50;;
3769;SDS011;1900;48.890;9.190;2022-12-01T04:10:48;30.70;;;17.57;;
3769;SDS011;1900;48.890;9.190;2022-12-01T04:13:13;33.50;;;15.13;;
3769;SDS011;1900;48.890;9.190;2022-12-01T04:15:48;38.10;;;17.63;;
3769;SDS011;1900;48.890;9.190;2022-12-01T04:18:15;31.03;;;17.13;;
3769;SDS011;1900;48.890;9.190;2022-12-01T04:20:42;25.43;;;14.87;;
3769;SDS011;1900;48.890;9.190;2022-12-01T04:23:09;32.87;;;17.70;;
3769;SDS011;1900;48.890;9.190;2022-12-01T04:25:34;32.97;;;16.23;;
3769;SDS011;1900;48.890;9.190;2022-12-01T04:28:00;30.07;;;16.00;;
3769;SDS011;1900;48.890;9.190;2022-12-01T04:30:26;34.83;;;16.20;;
3769;SDS011;1900;48.890;9.190;2022-12-01T04:32:51;31.80;;;16.13;;
3769;SDS011;1900;48.890;9.190;2022-12-01T04:35:17;33.67;;;15.77;;
3769;SDS011;1900;48.890;9.190;2022-12-01T04:37:43;27.97;;;15.53;;
3769;SDS011;1900;48.890;9.190;2022-12-01T04:40:08;28.33;;;16.03;;
3769;SDS011;1900;48.890;9.190;2022-12-01T04:42:34;27.90;;;14.90;;
3769;SDS011;1900;48.890;9.190;2022-12-01T04:45:00;32.33;;;16.27;;
3769;SDS011;1900;48.890;9.190;2022-12-01T04:47:26;33.67;;;16.60;;
3769;SDS011;1900;48.890;9.190;2022-12-01T04:49:52;32.93;;;15.20;;
3769;SDS011;1900;48.890;9.190;2022-12-01T04:52:18;27.47;;;15.83;;
3769;SDS011;1900;48.890;9.190;2022-12-01T04:54:44;30.87;;;15.80;;
3769;SDS011;1900;48.890;9.190;2022-12-01T04:57:09;27.93;;;15.10;;
3769;SDS011;1900;48.890;9.190;2022-12-01T04:59:35;28.90;;;14.67;;
3769;SDS011;1900;48.890;9.190;2022-12-01T05:02:01;25.90;;;14.87;;
3769;SDS011;1900;48.890;9.190;2022-12-01T05:04:28;28.40;;;14.60;;
3769;SDS011;1900;48.890;9.190;2022-12-01T05:06:55;29.83;;;15.90;;
3769;SDS011;1900;48.890;9.190;2022-12-01T05:09:20;27.47;;;13.60;;
3769;SDS011;1900;48.890;9.190;2022-12-01T05:11:46;33.23;;;15.97;;
3769;SDS011;1900;48.890;9.190;2022-12-01T05:14:12;29.43;;;15.27;;
3769;SDS011;1900;48.890;9.190;2022-12-01T05:16:38;27.60;;;14.83;;
3769;SDS011;1900;48.890;9.190;2022-12-01T05:19:04;29.10;;;14.13;;
3769;SDS011;1900;48.890;9.190;2022-12-01T05:21:49;26.83;;;13.30;;
3769;SDS011;1900;48.890;9.190;2022-12-01T05:24:15;27.90;;;14.83;;
3769;SDS011;1900;48.890;9.190;2022-12-01T05:26:42;29.37;;;15.43;;
3769;SDS011;1900;48.890;9.190;2022-12-01T05:29:08;28.23;;;14.50;;
3769;SDS011;1900;48.890;9.190;2022-12-01T05:31:35;37.27;;;16.63;;
3769;SDS011;1900;48.890;9.190;2022-12-01T05:34:01;24.83;;;14.90;;
3769;SDS011;1900;48.890;9.190;2022-12-01T05:36:26;27.10;;;15.60;;
3769;SDS011;1900;48.890;9.190;2022-12-01T05:38:52;30.03;;;15.90;;
3769;SDS011;1900;48.890;9.190;2022-12-01T05:41:18;32.50;;;16.00;;
3769;SDS011;1900;48.890;9.190;2022-12-01T05:43:44;33.80;;;16.30;;
3769;SDS011;1900;48.890;9.190;2022-12-01T05:46:10;29.57;;;16.07;;
3769;SDS011;1900;48.890;9.190;2022-12-01T05:48:36;34.37;;;17.20;;
3769;SDS011;1900;48.890;9.190;2022-12-01T05:51:11;25.70;;;15.53;;
3769;SDS011;1900;48.890;9.190;2022-12-01T05:53:39;35.10;;;16.07;;
3769;SDS011;1900;48.890;9.190;2022-12-01T05:56:05;31.53;;;16.30;;
3769;SDS011;1900;48.890;9.190;2022-12-01T05:58:31;30.83;;;17.80;;
3769;SDS011;1900;48.890;9.190;2022-12-01T06:00:57;33.87;;;16.47;;
3769;SDS011;1900;48.890;9.190;2022-12-01T06:03:23;28.90;;;15.13;;
3769;SDS011;1900;48.890;9.190;2022-12-01T06:05:49;28.53;;;16.07;;
3769;SDS011;1900;48.890;9.190;2022-12-01T06:08:15;33.80;;;16.30;;
3769;SDS011;1900;48.890;9.190;2022-12-01T06:10:40;29.27;;;17.00;;
3769;SDS011;1900;48.890;9.190;2022-12-01T06:13:06;25.40;;;15.67;;
3769;SDS011;1900;48.890;9.190;2022-12-01T06:15:32;34.53;;;16.73;;
3769;SDS011;1900;48.890;9.190;2022-12-01T06:17:58;30.43;;;16.73;;
3769;SDS011;1900;48.890;9.190;2022-12-01T06:20:24;27.77;;;15.40;;
3769;SDS011;1900;48.890;9.190;2022-12-01T06:22:49;31.20;;;15.93;;
3769;SDS011;1900;48.890;9.190;2022-12-01T06:25:15;27.10;;;14.30;;
3769;SDS011;1900;48.890;9.190;2022-12-01T06:27:41;27.60;;;15.37;;
3769;SDS011;1900;48.890;9.190;2022-12-01T06:30:07;28.67;;;15.73;;
3769;SDS011;1900;48.890;9.190;2022-12-01T06:32:33;26.87;;;15.13;;
3769;SDS011;1900;48.890;9.190;2022-12-01T06:34:59;28.73;;;15.70;;
3769;SDS011;1900;48.890;9.190;2022-12-01T06:37:25;29.20;;;15.00;;
3769;SDS011;1900;48.890;9.190;2022-12-01T06:39:52;23.57;;;15.10;;
3769;SDS011;1900;48.890;9.190;2022-12-01T06:42:17;26.53;;;13.87;;
3769;SDS011;1900;48.890;9.190;2022-12-01T06:44:43;28.87;;;15.30;;
3769;SDS011;1900;48.890;9.190;2022-12-01T06:47:10;38.43;;;16.63;;
3769;SDS011;1900;48.890;9.190;2022-12-01T06:49:35;27.23;;;14.00;;
3769;SDS011;1900;48.890;9.190;2022-12-01T06:52:02;29.70;;;15.03;;
3769;SDS011;1900;48.890;9.190;2022-12-01T06:54:28;33.10;;;14.60;;
3769;SDS011;1900;48.890;9.190;2022-12-01T06:56:54;31.70;;;15.27;;
3769;SDS011;1900;48.890;9.190;2022-12-01T06:59:20;25.97;;;14.83;;
3769;SDS011;1900;48.890;9.190;2022-12-01T07:01:45;27.70;;;15.10;;
3769;SDS011;1900;48.890;9.190;2022-12-01T07:04:11;29.23;;;15.23;;
3769;SDS011;1900;48.890;9.190;2022-12-01T07:06:37;32.57;;;15.60;;
3769;SDS011;1900;48.890;9.190;2022-12-01T07:09:02;24.60;;;13.40;;
3769;SDS011;1900;48.890;9.190;2022-12-01T07:11:28;26.40;;;15.20;;
3769;SDS011;1900;48.890;9.190;2022-12-01T07:13:56;29.00;;;15.00;;
3769;SDS011;1900;48.890;9.190;2022-12-01T07:16:22;27.57;;;15.43;;
3769;SDS011;1900;48.890;9.190;2022-12-01T07:18:47;28.97;;;15.30;;
3769;SDS011;1900;48.890;9.190;2022-12-01T07:21:13;26.43;;;15.50;;
3769;SDS011;1900;48.890;9.190;2022-12-01T07:23:40;29.33;;;14.53;;
3769;SDS011;1900;48.890;9.190;2022-12-01T07:26:08;31.37;;;14.97;;
3769;SDS011;1900;48.890;9.190;2022-12-01T07:28:36;28.00;;;14.70;;
3769;SDS011;1900;48.890;9.190;2022-12-01T07:33:29;32.43;;;15.00;;
3769;SDS011;1900;48.890;9.190;2022-12-01T07:35:55;28.97;;;14.77;;
3769;SDS011;1900;48.890;9.190;2022-12-01T07:38:21;23.47;;;13.40;;
3769;SDS011;1900;48.890;9.190;2022-12-01T07:40:46;24.70;;;15.47;;
3769;SDS011;1900;48.890;9.190;2022-12-01T07:43:12;27.60;;;14.80;;
3769;SDS011;1900;48.890;9.190;2022-12-01T07:45:38;27.63;;;13.43;;
3769;SDS011;1900;48.890;9.190;2022-12-01T07:48:04;24.30;;;13.83;;
3769;SDS011;1900;48.890;9.190;2022-12-01T07:50:30;29.83;;;15.20;;
3769;SDS011;1900;48.890;9.190;2022-12-01T07:52:56;26.10;;;13.70;;
3769;SDS011;1900;48.890;9.190;2022-12-01T07:55:22;30.07;;;14.63;;
3769;SDS011;1900;48.890;9.190;2022-12-01T07:57:47;21.17;;;12.73;;
3769;SDS011;1900;48.890;9.190;2022-12-01T08:00:13;28.73;;;15.80;;
3769;SDS011;1900;48.890;9.190;2022-12-01T08:02:39;25.93;;;13.90;;
3769;SDS011;1900;48.890;9.190;2022-12-01T08:05:05;27.33;;;14.43;;
3769;SDS011;1900;48.890;9.190;2022-12-01T08:07:31;28.30;;;14.00;;
3769;SDS011;1900;48.890;9.190;2022-12-01T08:09:57;21.70;;;13.30;;
3769;SDS011;1900;48.890;9.190;2022-12-01T08:12:22;28.70;;;14.27;;
3769;SDS011;1900;48.890;9.190;2022-12-01T08:14:48;25.97;;;15.00;;
3769;SDS011;1900;48.890;9.190;2022-12-01T08:17:13;28.20;;;15.50;;
3769;SDS011;1900;48.890;9.190;2022-12-01T08:19:39;25.60;;;13.80;;
3769;SDS011;1900;48.890;9.190;2022-12-01T08:22:05;25.37;;;13.53;;
3769;SDS011;1900;48.890;9.190;2022-12-01T08:24:30;28.03;;;14.53;;
3769;SDS011;1900;48.890;9.190;2022-12-01T08:26:56;27.37;;;14.27;;
3769;SDS011;1900;48.890;9.190;2022-12-01T08:29:22;28.33;;;14.17;;
3769;SDS011;1900;48.890;9.190;2022-12-01T08:31:48;27.50;;;14.67;;
3769;SDS011;1900;48.890;9.190;2022-12-01T08:34:14;24.17;;;13.83;;
3769;SDS011;1900;48.890;9.190;2022-12-01T08:36:40;25.87;;;13.97;;
3769;SDS011;1900;48.890;9.190;2022-12-01T08:39:06;29.23;;;14.90;;
3769;SDS011;1900;48.890;9.190;2022-12-01T08:41:32;26.77;;;13.77;;
3769;SDS011;1900;48.890;9.190;2022-12-01T08:43:58;22.57;;;13.37;;
3769;SDS011;1900;48.890;9.190;2022-12-01T08:46:28;25.93;;;14.23;;
3769;SDS011;1900;48.890;9.190;2022-12-01T08:48:56;23.40;;;13.57;;
3769;SDS011;1900;48.890;9.190;2022-12-01T08:51:22;27.50;;;13.53;;
3769;SDS011;1900;48.890;9.190;2022-12-01T08:53:48;26.43;;;14.33;;
3769;SDS011;1900;48.890;9.190;2022-12-01T08:56:22;30.07;;;15.30;;
3769;SDS011;1900;48.890;9.190;2022-12-01T08:58:50;28.83;;;16.37;;
3769;SDS011;1900;48.890;9.190;2022-12-01T09:01:16;28.27;;;13.33;;
3769;SDS011;1900;48.890;9.190;2022-12-01T09:03:42;28.53;;;14.60;;
3769;SDS011;1900;48.890;9.190;2022-12-01T09:08:34;26.37;;;14.50;;
3769;SDS011;1900;48.890;9.190;2022-12-01T09:11:05;30.07;;;15.57;;
3769;SDS011;1900;48.890;9.190;2022-12-01T09:13:33;30.73;;;15.77;;
3769;SDS011;1900;48.890;9.190;2022-12-01T09:16:04;28.97;;;14.17;;
3769;SDS011;1900;48.890;9.190;2022-12-01T09:18:40;24.60;;;13.37;;
3769;SDS011;1900;48.890;9.190;2022-12-01T09:23:43;30.90;;;14.93;;
3769;SDS011;1900;48.890;9.190;2022-12-01T09:26:08;28.50;;;15.97;;
3769;SDS011;1900;48.890;9.190;2022-12-01T09:28:35;27.20;;;15.13;;
3769;SDS011;1900;48.890;9.190;2022-12-01T09:31:04;33.37;;;15.77;;
3769;SDS011;1900;48.890;9.190;2022-12-01T09:33:31;28.33;;;15.37;;
3769;SDS011;1900;48.890;9.190;2022-12-01T09:35:57;23.93;;;14.90;;
3769;SDS011;1900;48.890;9.190;2022-12-01T09:38:23;28.47;;;15.37;;
3769;SDS011;1900;48.890;9.190;2022-12-01T09:40:49;28.80;;;14.03;;
3769;SDS011;1900;48.890;9.190;2022-12-01T09:43:21;27.80;;;16.70;;
3769;SDS011;1900;48.890;9.190;2022-12-01T09:45:59;29.17;;;15.33;;
3769;SDS011;1900;48.890;9.190;2022-12-01T09:50:58;32.90;;;16.30;;
3769;SDS011;1900;48.890;9.190;2022-12-01T09:53:25;27.33;;;14.80;;
3769;SDS011;1900;48.890;9.190;2022-12-01T09:55:53;30.97;;;14.80;;
3769;SDS011;1900;48.890;9.190;2022-12-01T09:58:21;29.47;;;15.17;;
3769;SDS011;1900;48.890;9.190;2022-12-01T10:00:50;26.13;;;13.70;;
3769;SDS011;1900;48.890;9.190;2022-12-01T10:03:38;25.50;;;13.93;;
3769;SDS011;1900;48.890;9.190;2022-12-01T10:06:14;27.30;;;16.27;;
3769;SDS011;1900;48.890;9.190;2022-12-01T10:11:39;25.60;;;14.60;;
3769;SDS011;1900;48.890;9.190;2022-12-01T10:14:16;30.70;;;15.03;;
3769;SDS011;1900;48.890;9.190;2022-12-01T10:17:01;29.70;;;15.30;;
3769;SDS011;1900;48.890;9.190;2022-12-01T10:19:39;26.03;;;14.93;;
3769;SDS011;1900;48.890;9.190;2022-12-01T10:30:20;27.03;;;12.47;;
3769;SDS011;1900;48.890;9.190;2022-12-01T10:35:21;22.03;;;14.97;;
3769;SDS011;1900;48.890;9.190;2022-12-01T10:37:58;27.73;;;14.70;;
3769;SDS011;1900;48.890;9.190;2022-12-01T10:40:30;23.97;;;13.57;;
3769;SDS011;1900;48.890;9.190;2022-12-01T10:42:59;24.77;;;13.47;;
3769;SDS011;1900;48.890;9.190;2022-12-01T10:45:27;27.70;;;15.60;;
3769;SDS011;1900;48.890;9.190;2022-12-01T10:50:43;33.90;;;14.47;;
3769;SDS011;1900;48.890;9.190;2022-12-01T10:56:16;31.10;;;15.00;;
3769;SDS011;1900;48.890;9.190;2022-12-01T10:58:45;26.30;;;13.53;;
3769;SDS011;1900;48.890;9.190;2022-12-01T11:01:23;32.63;;;15.70;;
3769;SDS011;1900;48.890;9.190;2022-12-01T11:03:59;29.73;;;14.80;;
3769;SDS011;1900;48.890;9.190;2022-12-01T11:06:29;30.73;;;14.57;;
3769;SDS011;1900;48.890;9.190;2022-12-01T11:08:57;29.30;;;13.67;;
3769;SDS011;1900;48.890;9.190;2022-12-01T11:11:32;27.47;;;13.40;;
3769;SDS011;1900;48.890;9.190;2022-12-01T11:14:02;26.80;;;13.70;;
3769;SDS011;1900;48.890;9.190;2022-12-01T11:16:41;27.60;;;14.57;;
3769;SDS011;1900;48.890;9.190;2022-12-01T11:19:31;29.00;;;14.73;;
3769;SDS011;1900;48.890;9.190;2022-12-01T11:21:57;23.80;;;13.17;;
3769;SDS011;1900;48.890;9.190;2022-12-01T11:24:43;27.83;;;13.60;;
3769;SDS011;1900;48.890;9.190;2022-12-01T11:27:21;24.33;;;13.40;;
3769;SDS011;1900;48.890;9.190;2022-12-01T11:29:56;25.50;;;13.23;;
3769;SDS011;1900;48.890;9.190;2022-12-01T11:32:37;26.77;;;13.03;;
3769;SDS011;1900;48.890;9.190;2022-12-01T11:37:47;27.60;;;14.20;;
3769;SDS011;1900;48.890;9.190;2022-12-01T11:42:51;26.03;;;14.10;;
3769;SDS011;1900;48.890;9.190;2022-12-01T11:48:01;23.67;;;13.00;;
3769;SDS011;1900;48.890;9.190;2022-12-01T11:50:35;27.30;;;15.80;;
3769;SDS011;1900;48.890;9.190;2022-12-01T11:53:02;23.57;;;13.13;;
3769;SDS011;1900;48.890;9.190;2022-12-01T11:55:47;25.80;;;13.37;;
3769;SDS011;1900;48.890;9.190;2022-12-01T11:58:13;24.77;;;13.07;;
3769;SDS011;1900;48.890;9.190;2022-12-01T12:00:44;24.07;;;13.50;;
3769;SDS011;1900;48.890;9.190;2022-12-01T12:03:23;27.20;;;13.70;;
3769;SDS011;1900;48.890;9.190;2022-12-01T12:06:04;27.00;;;13.53;;
3769;SDS011;1900;48.890;9.190;2022-12-01T12:08:50;26.53;;;14.77;;
3769;SDS011;1900;48.890;9.190;2022-12-01T12:11:45;25.80;;;14.90;;
3769;SDS011;1900;48.890;9.190;2022-12-01T12:30:50;28.93;;;13.20;;
3769;SDS011;1900;48.890;9.190;2022-12-01T12:33:55;23.63;;;13.40;;
3769;SDS011;1900;48.890;9.190;2022-12-01T12:41:52;27.53;;;13.73;;
3769;SDS011;1900;48.890;9.190;2022-12-01T12:44:26;26.57;;;14.43;;
3769;SDS011;1900;48.890;9.190;2022-12-01T12:50:05;22.07;;;13.03;;
3769;SDS011;1900;48.890;9.190;2022-12-01T12:52:55;25.30;;;12.77;;
3769;SDS011;1900;48.890;9.190;2022-12-01T12:58:05;25.10;;;13.93;;
3769;SDS011;1900;48.890;9.190;2022-12-01T13:01:15;21.40;;;12.43;;
3769;SDS011;1900;48.890;9.190;2022-12-01T13:06:40;18.97;;;11.10;;
3769;SDS011;1900;48.890;9.190;2022-12-01T13:09:19;21.17;;;11.60;;
3769;SDS011;1900;48.890;9.190;2022-12-01T13:14:30;27.00;;;12.57;;
3769;SDS011;1900;48.890;9.190;2022-12-01T13:17:24;23.70;;;13.00;;
3769;SDS011;1900;48.890;9.190;2022-12-01T13:19:52;22.97;;;12.40;;
3769;SDS011;1900;48.890;9.190;2022-12-01T13:22:19;22.33;;;12.80;;
3769;SDS011;1900;48.890;9.190;2022-12-01T13:24:48;27.57;;;13.40;;
3769;SDS011;1900;48.890;9.190;2022-12-01T13:29:46;22.07;;;12.07;;
3769;SDS011;1900;48.890;9.190;2022-12-01T13:32:47;21.97;;;13.50;;
3769;SDS011;1900;48.890;9.190;2022-12-01T13:35:29;22.20;;;12.90;;
3769;SDS011;1900;48.890;9.190;2022-12-01T13:38:45;30.30;;;13.70;;
3769;SDS011;1900;48.890;9.190;2022-12-01T13:44:36;23.17;;;12.70;;
3769;SDS011;1900;48.890;9.190;2022-12-01T13:57:32;24.90;;;12.77;;
3769;SDS011;1900;48.890;9.190;2022-12-01T14:08:18;29.43;;;15.10;;
3769;SDS011;1900;48.890;9.190;2022-12-01T14:13:44;26.93;;;13.63;;
3769;SDS011;1900;48.890;9.190;2022-12-01T14:16:14;24.13;;;13.87;;
3769;SDS011;1900;48.890;9.190;2022-12-01T14:18:41;22.43;;;13.13;;
3769;SDS011;1900;48.890;9.190;2022-12-01T14:21:13;22.47;;;13.03;;
3769;SDS011;1900;48.890;9.190;2022-12-01T14:23:57;21.23;;;11.80;;
3769;SDS011;1900;48.890;9.190;2022-12-01T14:26:24;27.43;;;13.70;;
3769;SDS011;1900;48.890;9.190;2022-12-01T14:34:06;22.43;;;13.67;;
3769;SDS011;1900;48.890;9.190;2022-12-01T14:36:44;23.70;;;12.97;;
3769;SDS011;1900;48.890;9.190;2022-12-01T14:54:50;24.80;;;12.97;;
3769;SDS011;1900;48.890;9.190;2022-12-01T14:57:20;25.83;;;13.97;;
3769;SDS011;1900;48.890;9.190;2022-12-01T15:00:17;37.30;;;13.63;;
3769;SDS011;1900;48.890;9.190;2022-12-01T15:05:38;26.87;;;13.67;;
3769;SDS011;1900;48.890;9.190;2022-12-01T15:08:16;26.20;;;13.60;;
3769;SDS011;1900;48.890;9.190;2022-12-01T15:13:27;19.57;;;11.97;;
3769;SDS011;1900;48.890;9.190;2022-12-01T15:16:03;24.73;;;12.57;;
3769;SDS011;1900;48.890;9.190;2022-12-01T15:18:38;27.87;;;14.37;;
3769;SDS011;1900;48.890;9.190;2022-12-01T15:23:35;24.77;;;13.83;;
3769;SDS011;1900;48.890;9.190;2022-12-01T15:26:01;26.50;;;12.80;;
3769;SDS011;1900;48.890;9.190;2022-12-01T15:28:32;22.67;;;12.50;;
3769;SDS011;1900;48.890;9.190;2022-12-01T15:31:00;26.30;;;14.43;;
3769;SDS011;1900;48.890;9.190;2022-12-01T15:33:32;25.67;;;13.77;;
3769;SDS011;1900;48.890;9.190;2022-12-01T15:36:00;26.60;;;14.43;;
3769;SDS011;1900;48.890;9.190;2022-12-01T15:38:30;28.17;;;15.67;;
3769;SDS011;1900;48.890;9.190;2022-12-01T15:40:58;23.03;;;13.80;;
3769;SDS011;1900;48.890;9.190;2022-12-01T15:43:33;22.17;;;12.70;;
3769;SDS011;1900;48.890;9.190;2022-12-01T15:46:15;29.30;;;13.70;;
3769;SDS011;1900;48.890;9.190;2022-12-01T15:48:42;25.20;;;13.40;;
3769;SDS011;1900;48.890;9.190;2022-12-01T15:51:13;25.40;;;12.87;;
3769;SDS011;1900;48.890;9.190;2022-12-01T15:53:49;27.00;;;12.87;;
3769;SDS011;1900;48.890;9.190;2022-12-01T15:56:31;24.17;;;12.87;;
3769;SDS011;1900;48.890;9.190;2022-12-01T15:59:36;24.50;;;13.97;;
3769;SDS011;1900;48.890;9.190;2022-12-01T16:02:03;22.97;;;12.57;;
3769;SDS011;1900;48.890;9.190;2022-12-01T16:04:30;23.17;;;12.20;;
3769;SDS011;1900;48.890;9.190;2022-12-01T16:06:58;27.60;;;13.77;;
3769;SDS011;1900;48.890;9.190;2022-12-01T16:09:34;26.63;;;13.73;;
3769;SDS011;1900;48.890;9.190;2022-12-01T16:14:31;22.77;;;12.83;;
3769;SDS011;1900;48.890;9.190;2022-12-01T16:16:57;23.70;;;13.50;;
3769;SDS011;1900;48.890;9.190;2022-12-01T16:19:30;26.73;;;15.50;;
3769;SDS011;1900;48.890;9.190;2022-12-01T16:29:54;33.70;;;15.23;;
3769;SDS011;1900;48.890;9.190;2022-12-01T16:32:22;29.13;;;15.07;;
3769;SDS011;1900;48.890;9.190;2022-12-01T16:34:56;24.10;;;13.77;;
3769;SDS011;1900;48.890;9.190;2022-12-01T16:37:21;30.90;;;14.83;;
3769;SDS011;1900;48.890;9.190;2022-12-01T16:39:48;29.83;;;14.83;;
3769;SDS011;1900;48.890;9.190;2022-12-01T16:42:14;26.17;;;13.33;;
3769;SDS011;1900;48.890;9.190;2022-12-01T16:44:42;24.50;;;15.13;;
3769;SDS011;1900;48.890;9.190;2022-12-01T16:47:24;25.43;;;14.60;;
3769;SDS011;1900;48.890;9.190;2022-12-01T16:49:50;24.60;;;14.50;;
3769;SDS011;1900;48.890;9.190;2022-12-01T16:52:16;29.80;;;15.70;;
3769;SDS011;1900;48.890;9.190;2022-12-01T16:54:42;29.60;;;15.87;;
3769;SDS011;1900;48.890;9.190;2022-12-01T16:57:08;31.57;;;17.50;;
3769;SDS011;1900;48.890;9.190;2022-12-01T16:59:34;30.37;;;16.50;;
3769;SDS011;1900;48.890;9.190;2022-12-01T17:02:00;32.70;;;15.20;;
3769;SDS011;1900;48.890;9.190;2022-12-01T17:04:26;28.30;;;16.17;;
3769;SDS011;1900;48.890;9.190;2022-12-01T17:06:52;24.20;;;13.33;;
3769;SDS011;1900;48.890;9.190;2022-12-01T17:09:18;30.23;;;15.60;;
3769;SDS011;1900;48.890;9.190;2022-12-01T17:11:44;28.97;;;14.63;;
3769;SDS011;1900;48.890;9.190;2022-12-01T17:14:10;29.43;;;16.10;;
3769;SDS011;1900;48.890;9.190;2022-12-01T17:16:36;35.50;;;19.30;;
3769;SDS011;1900;48.890;9.190;2022-12-01T17:19:02;26.23;;;15.67;;
3769;SDS011;1900;48.890;9.190;2022-12-01T17:21:28;39.03;;;19.53;;
3769;SDS011;1900;48.890;9.190;2022-12-01T17:23:54;29.93;;;16.93;;
3769;SDS011;1900;48.890;9.190;2022-12-01T17:26:20;32.73;;;19.00;;
3769;SDS011;1900;48.890;9.190;2022-12-01T17:28:47;30.67;;;17.93;;
3769;SDS011;1900;48.890;9.190;2022-12-01T17:31:13;32.27;;;18.60;;
3769;SDS011;1900;48.890;9.190;2022-12-01T17:33:39;31.03;;;18.60;;
3769;SDS011;1900;48.890;9.190;2022-12-01T17:36:06;36.10;;;18.77;;
3769;SDS011;1900;48.890;9.190;2022-12-01T17:38:35;41.97;;;22.00;;
3769;SDS011;1900;48.890;9.190;2022-12-01T17:41:07;50.70;;;22.30;;
3769;SDS011;1900;48.890;9.190;2022-12-01T17:43:36;30.70;;;17.43;;
3769;SDS011;1900;48.890;9.190;2022-12-01T17:46:02;38.97;;;18.13;;
3769;SDS011;1900;48.890;9.190;2022-12-01T17:48:40;36.70;;;18.23;;
3769;SDS011;1900;48.890;9.190;2022-12-01T17:51:07;34.10;;;16.93;;